CheckWX is a tool to help pilots better visualize weather data.  It is not intended as a substitute for an official pre-flight weather briefing.

13:47:21 UTC

EGQS TAF
RAF Lossiemouth Airport
Lossiemouth, United Kingdom
TAF EGQS 221034Z 2212/2306 23015KT 9999 FEW030 PROB40 TEMPO 2212/2216 23020G30KT

Oct-22@
12:00 UTC

Oct-22 @ 12:00 UTC

Oct-23@
06:00 UTC

Oct-23 @ 06:00 UTC

TAF EGQS 221034Z 2212/2306 23015KT 9999 FEW030
Wind
  • 230° at 15 KTS
Cloud Levels
  • Few at 3,000' AGL

Oct-22@
12:00 UTC

Oct-22 @ 12:00 UTC

Oct-22@
16:00 UTC

Oct-22 @ 16:00 UTC

PROB40 TEMPO 2212/2216 23020G30KT

Temporary - 40% Likelihood

Temporary - 40% Likelihood during this time.

Wind
  • 230° at 20 KTS
  • {Gusting to 30 KTS